Airfield :
LOGIN :

Register | Disclaimer

   EN    FR    IT 

 










Legend :    VFR   Marginal VFR   IFR   Intensive IFR   Very Intensive IFR
Visi :
Ceiling :
>= 8 km
>= 3000ft
5 to 8 km
1000 to 3000 ft
1500m to 5 km
500 to 1000 ft
800 to 1500m
200 to 500 ft
< 800m
< 200 ft
Symbols :   Thunderstorms  Fog  Heavy snow  Heavy precipitations  Wind > 20 kt
SIGMETs :     Misc.  Thunderstorms  Icing  Turbulence  Mountain Waves  Volcanic Ashes







- Airport Elevation : 2220 ft


LOXZ - Zeltweg AB

CURRENT METAR :
  • 191750Z 10006KT 5000 TSRA FEW005ST SCT040SC FEW040CB BKN070SC 19/17 Q1020

EXPIRED METARs :
  • 191650Z 10006KT 5000 TSRA FEW010ST SCT030CB BKN050SC 19/17 Q1020 BECMG NSW
  • 191620Z 11007KT 20KM -SHRA FEW030SC SCT050CU FEW050CB BKN060SC 21/16 Q1019 TEMPO MOD TSRA
  • 191550Z 35013G24KT 30KM -SHRA FEW040SC FEW060CB SCT080SC 23/14 Q1018 RETS NOSIG
  • 191520Z 11011KT 30KM FEW040SC FEW060CB SCT080SC 26/14 Q1017 TEMPO TS

TAF TAF LOXZ
Valid from the 19 at 15:00 until the 20 at 00:00 UTC


191415Z 1915/1924 VRB03KT 9999 FEW060 SCT080
TEMPO 1915/1921 FEW060CB BKN080
PROB40
TEMPO 1915/1921 VRB15G25KT 6000 TSRA FEW010 BKN050CB
No reported NOTAMs for that airfield.



MET'MAP, your aeronautical weather chart ! - Copyright ORBIFLY December 2007 - Disclaimer

ORBIFLY MET'MAP TEAM :

Programming & Development : Alexandra Zaïnal
Concept & Development : Baudouin d'Aumeries
Co-Development & Prog : Marc-Olivier Méhu
Technical & hardware support : Manuel Goepfert

Contact : metmap@orbifly.com




SOURCES & CREDITS :

   NOAA